sensor_id;sensor_type;location;lat;lon;timestamp;temperature;humidity
15394;DHT22;7795;47.986;11.868;2023-06-14T00:01:32;15.20;51.00
15394;DHT22;7795;47.986;11.868;2023-06-14T00:03:59;15.10;51.70
15394;DHT22;7795;47.986;11.868;2023-06-14T00:06:26;15.10;51.20
15394;DHT22;7795;47.986;11.868;2023-06-14T00:08:52;15.00;51.30
15394;DHT22;7795;47.986;11.868;2023-06-14T00:11:21;15.00;51.50
15394;DHT22;7795;47.986;11.868;2023-06-14T00:13:46;14.90;51.80
15394;DHT22;7795;47.986;11.868;2023-06-14T00:16:12;14.90;51.80
15394;DHT22;7795;47.986;11.868;2023-06-14T00:18:38;14.80;51.90
15394;DHT22;7795;47.986;11.868;2023-06-14T00:21:04;14.80;51.90
15394;DHT22;7795;47.986;11.868;2023-06-14T00:23:29;14.70;51.90
15394;DHT22;7795;47.986;11.868;2023-06-14T00:25:55;14.70;52.00
15394;DHT22;7795;47.986;11.868;2023-06-14T00:28:22;14.70;52.10
15394;DHT22;7795;47.986;11.868;2023-06-14T00:30:48;14.60;53.00
15394;DHT22;7795;47.986;11.868;2023-06-14T00:33:14;14.60;52.40
15394;DHT22;7795;47.986;11.868;2023-06-14T00:35:40;14.60;52.40
15394;DHT22;7795;47.986;11.868;2023-06-14T00:38:05;14.50;52.40
15394;DHT22;7795;47.986;11.868;2023-06-14T00:40:31;14.50;52.50
15394;DHT22;7795;47.986;11.868;2023-06-14T00:42:57;14.40;52.50
15394;DHT22;7795;47.986;11.868;2023-06-14T00:45:24;14.40;52.60
15394;DHT22;7795;47.986;11.868;2023-06-14T00:47:50;14.40;53.00
15394;DHT22;7795;47.986;11.868;2023-06-14T00:50:20;14.40;53.00
15394;DHT22;7795;47.986;11.868;2023-06-14T00:52:45;14.30;53.30
15394;DHT22;7795;47.986;11.868;2023-06-14T00:55:11;14.30;53.30
15394;DHT22;7795;47.986;11.868;2023-06-14T00:57:37;14.30;53.30
15394;DHT22;7795;47.986;11.868;2023-06-14T01:00:04;14.20;53.30
15394;DHT22;7795;47.986;11.868;2023-06-14T01:02:36;14.20;53.50
15394;DHT22;7795;47.986;11.868;2023-06-14T01:05:02;14.10;53.60
15394;DHT22;7795;47.986;11.868;2023-06-14T01:07:35;14.10;53.70
15394;DHT22;7795;47.986;11.868;2023-06-14T01:12:54;13.90;54.10
15394;DHT22;7795;47.986;11.868;2023-06-14T01:15:23;13.90;54.20
15394;DHT22;7795;47.986;11.868;2023-06-14T01:17:51;13.90;54.00
15394;DHT22;7795;47.986;11.868;2023-06-14T01:20:17;13.80;54.20
15394;DHT22;7795;47.986;11.868;2023-06-14T01:22:50;13.80;54.20
15394;DHT22;7795;47.986;11.868;2023-06-14T01:25:17;13.70;54.80
15394;DHT22;7795;47.986;11.868;2023-06-14T01:27:47;13.70;54.50
15394;DHT22;7795;47.986;11.868;2023-06-14T01:30:14;13.70;54.60
15394;DHT22;7795;47.986;11.868;2023-06-14T01:32:40;13.60;54.60
15394;DHT22;7795;47.986;11.868;2023-06-14T01:35:07;13.60;54.60
15394;DHT22;7795;47.986;11.868;2023-06-14T01:37:33;13.60;54.80
15394;DHT22;7795;47.986;11.868;2023-06-14T01:40:01;13.60;55.00
15394;DHT22;7795;47.986;11.868;2023-06-14T01:42:27;13.50;55.10
15394;DHT22;7795;47.986;11.868;2023-06-14T01:44:54;13.50;55.10
15394;DHT22;7795;47.986;11.868;2023-06-14T01:47:21;13.50;55.10
15394;DHT22;7795;47.986;11.868;2023-06-14T01:49:47;13.50;55.10
15394;DHT22;7795;47.986;11.868;2023-06-14T01:52:13;13.50;55.00
15394;DHT22;7795;47.986;11.868;2023-06-14T01:54:38;13.50;55.20
15394;DHT22;7795;47.986;11.868;2023-06-14T01:57:09;13.40;55.20
15394;DHT22;7795;47.986;11.868;2023-06-14T01:59:35;13.40;55.50
15394;DHT22;7795;47.986;11.868;2023-06-14T02:02:03;13.40;55.40
15394;DHT22;7795;47.986;11.868;2023-06-14T02:04:29;13.30;55.50
15394;DHT22;7795;47.986;11.868;2023-06-14T02:06:54;13.30;55.50
15394;DHT22;7795;47.986;11.868;2023-06-14T02:09:20;13.30;55.60
15394;DHT22;7795;47.986;11.868;2023-06-14T02:11:46;13.20;55.80
15394;DHT22;7795;47.986;11.868;2023-06-14T02:14:13;13.20;55.80
15394;DHT22;7795;47.986;11.868;2023-06-14T02:16:40;13.20;55.80
15394;DHT22;7795;47.986;11.868;2023-06-14T02:19:05;13.20;55.80
15394;DHT22;7795;47.986;11.868;2023-06-14T02:21:32;13.10;55.80
15394;DHT22;7795;47.986;11.868;2023-06-14T02:23:57;13.10;55.90
15394;DHT22;7795;47.986;11.868;2023-06-14T02:26:23;13.10;56.10
15394;DHT22;7795;47.986;11.868;2023-06-14T02:28:49;13.00;56.20
15394;DHT22;7795;47.986;11.868;2023-06-14T02:31:17;13.00;56.20
15394;DHT22;7795;47.986;11.868;2023-06-14T02:33:42;13.00;56.50
15394;DHT22;7795;47.986;11.868;2023-06-14T02:36:08;12.90;56.40
15394;DHT22;7795;47.986;11.868;2023-06-14T02:38:34;12.90;56.60
15394;DHT22;7795;47.986;11.868;2023-06-14T02:41:00;12.90;56.80
15394;DHT22;7795;47.986;11.868;2023-06-14T02:43:28;12.90;56.80
15394;DHT22;7795;47.986;11.868;2023-06-14T02:45:54;12.80;56.80
15394;DHT22;7795;47.986;11.868;2023-06-14T02:48:21;12.80;57.50
15394;DHT22;7795;47.986;11.868;2023-06-14T02:50:47;12.80;56.90
15394;DHT22;7795;47.986;11.868;2023-06-14T02:53:12;12.80;56.80
15394;DHT22;7795;47.986;11.868;2023-06-14T02:55:38;12.80;56.90
15394;DHT22;7795;47.986;11.868;2023-06-14T02:58:05;12.80;56.90
15394;DHT22;7795;47.986;11.868;2023-06-14T03:00:31;12.80;57.00
15394;DHT22;7795;47.986;11.868;2023-06-14T03:02:56;12.70;57.20
15394;DHT22;7795;47.986;11.868;2023-06-14T03:05:23;12.70;57.20
15394;DHT22;7795;47.986;11.868;2023-06-14T03:07:49;12.70;57.40
15394;DHT22;7795;47.986;11.868;2023-06-14T03:10:15;12.70;57.40
15394;DHT22;7795;47.986;11.868;2023-06-14T03:12:41;12.60;57.40
15394;DHT22;7795;47.986;11.868;2023-06-14T03:15:08;12.60;57.40
15394;DHT22;7795;47.986;11.868;2023-06-14T03:17:34;12.60;57.50
15394;DHT22;7795;47.986;11.868;2023-06-14T03:20:05;12.50;57.40
15394;DHT22;7795;47.986;11.868;2023-06-14T03:22:33;12.50;57.60
15394;DHT22;7795;47.986;11.868;2023-06-14T03:24:59;12.50;57.70
15394;DHT22;7795;47.986;11.868;2023-06-14T03:27:25;12.50;57.60
15394;DHT22;7795;47.986;11.868;2023-06-14T03:29:54;12.50;57.80
15394;DHT22;7795;47.986;11.868;2023-06-14T03:32:19;12.50;57.90
15394;DHT22;7795;47.986;11.868;2023-06-14T03:34:45;12.40;57.80
15394;DHT22;7795;47.986;11.868;2023-06-14T03:37:11;12.40;58.10
15394;DHT22;7795;47.986;11.868;2023-06-14T03:39:39;12.40;58.00
15394;DHT22;7795;47.986;11.868;2023-06-14T03:42:12;12.40;58.10
15394;DHT22;7795;47.986;11.868;2023-06-14T03:44:38;12.30;58.10
15394;DHT22;7795;47.986;11.868;2023-06-14T03:47:04;12.30;58.10
15394;DHT22;7795;47.986;11.868;2023-06-14T03:49:30;12.30;58.20
15394;DHT22;7795;47.986;11.868;2023-06-14T03:51:56;12.30;58.40
15394;DHT22;7795;47.986;11.868;2023-06-14T03:54:21;12.30;58.50
15394;DHT22;7795;47.986;11.868;2023-06-14T03:56:48;12.30;58.50
15394;DHT22;7795;47.986;11.868;2023-06-14T03:59:14;12.20;58.60
15394;DHT22;7795;47.986;11.868;2023-06-14T04:01:40;12.20;58.50
15394;DHT22;7795;47.986;11.868;2023-06-14T04:04:12;12.20;58.60
15394;DHT22;7795;47.986;11.868;2023-06-14T04:06:38;12.20;58.70
15394;DHT22;7795;47.986;11.868;2023-06-14T04:09:06;12.20;58.90
15394;DHT22;7795;47.986;11.868;2023-06-14T04:11:32;12.20;59.10
15394;DHT22;7795;47.986;11.868;2023-06-14T04:13:59;12.20;59.20
15394;DHT22;7795;47.986;11.868;2023-06-14T04:16:25;12.10;59.40
15394;DHT22;7795;47.986;11.868;2023-06-14T04:18:51;12.10;59.40
15394;DHT22;7795;47.986;11.868;2023-06-14T04:21:17;12.10;59.50
15394;DHT22;7795;47.986;11.868;2023-06-14T04:23:43;12.10;59.50
15394;DHT22;7795;47.986;11.868;2023-06-14T04:26:09;12.20;59.70
15394;DHT22;7795;47.986;11.868;2023-06-14T04:28:36;12.20;59.80
15394;DHT22;7795;47.986;11.868;2023-06-14T04:31:07;12.20;60.00
15394;DHT22;7795;47.986;11.868;2023-06-14T04:33:34;12.20;60.20
15394;DHT22;7795;47.986;11.868;2023-06-14T04:36:08;12.20;60.20
15394;DHT22;7795;47.986;11.868;2023-06-14T04:38:34;12.20;60.10
15394;DHT22;7795;47.986;11.868;2023-06-14T04:41:00;12.30;60.30
15394;DHT22;7795;47.986;11.868;2023-06-14T04:43:27;12.30;60.40
15394;DHT22;7795;47.986;11.868;2023-06-14T04:45:53;12.40;60.70
15394;DHT22;7795;47.986;11.868;2023-06-14T04:48:23;12.40;60.80
15394;DHT22;7795;47.986;11.868;2023-06-14T04:50:50;12.50;61.00
15394;DHT22;7795;47.986;11.868;2023-06-14T04:53:19;12.60;61.10
15394;DHT22;7795;47.986;11.868;2023-06-14T04:55:47;12.70;61.50
15394;DHT22;7795;47.986;11.868;2023-06-14T04:58:13;12.90;61.70
15394;DHT22;7795;47.986;11.868;2023-06-14T05:00:39;13.00;61.70
15394;DHT22;7795;47.986;11.868;2023-06-14T05:03:05;13.20;61.60
15394;DHT22;7795;47.986;11.868;2023-06-14T05:05:33;13.40;61.50
15394;DHT22;7795;47.986;11.868;2023-06-14T05:07:59;13.60;61.70
15394;DHT22;7795;47.986;11.868;2023-06-14T05:10:25;13.90;61.50
15394;DHT22;7795;47.986;11.868;2023-06-14T05:12:51;14.10;61.40
15394;DHT22;7795;47.986;11.868;2023-06-14T05:15:18;14.40;61.30
15394;DHT22;7795;47.986;11.868;2023-06-14T05:17:45;14.70;61.00
15394;DHT22;7795;47.986;11.868;2023-06-14T05:20:16;15.00;60.80
15394;DHT22;7795;47.986;11.868;2023-06-14T05:22:43;15.30;60.30
15394;DHT22;7795;47.986;11.868;2023-06-14T05:25:09;15.60;60.00
15394;DHT22;7795;47.986;11.868;2023-06-14T05:27:34;15.90;59.80
15394;DHT22;7795;47.986;11.868;2023-06-14T05:30:02;16.20;59.40
15394;DHT22;7795;47.986;11.868;2023-06-14T05:32:29;16.50;59.20
15394;DHT22;7795;47.986;11.868;2023-06-14T05:34:55;16.80;58.90
15394;DHT22;7795;47.986;11.868;2023-06-14T05:37:21;17.10;58.50
15394;DHT22;7795;47.986;11.868;2023-06-14T05:39:48;17.40;58.10
15394;DHT22;7795;47.986;11.868;2023-06-14T05:42:14;17.70;57.80
15394;DHT22;7795;47.986;11.868;2023-06-14T05:44:39;18.00;57.40
15394;DHT22;7795;47.986;11.868;2023-06-14T05:47:05;18.30;57.10
15394;DHT22;7795;47.986;11.868;2023-06-14T05:49:31;18.60;56.70
15394;DHT22;7795;47.986;11.868;2023-06-14T05:51:57;18.80;56.30
15394;DHT22;7795;47.986;11.868;2023-06-14T05:54:23;19.10;56.00
15394;DHT22;7795;47.986;11.868;2023-06-14T05:56:50;19.30;55.40
15394;DHT22;7795;47.986;11.868;2023-06-14T05:59:15;19.50;55.00
15394;DHT22;7795;47.986;11.868;2023-06-14T06:01:41;19.80;54.60
15394;DHT22;7795;47.986;11.868;2023-06-14T06:04:07;20.00;54.30
15394;DHT22;7795;47.986;11.868;2023-06-14T06:06:33;20.20;53.70
15394;DHT22;7795;47.986;11.868;2023-06-14T06:08:59;20.30;53.30
15394;DHT22;7795;47.986;11.868;2023-06-14T06:11:25;20.50;53.00
15394;DHT22;7795;47.986;11.868;2023-06-14T06:13:52;20.70;52.80
15394;DHT22;7795;47.986;11.868;2023-06-14T06:16:18;20.80;52.10
15394;DHT22;7795;47.986;11.868;2023-06-14T06:18:44;21.00;51.80
15394;DHT22;7795;47.986;11.868;2023-06-14T06:21:10;21.10;51.50
15394;DHT22;7795;47.986;11.868;2023-06-14T06:23:35;21.20;51.20
15394;DHT22;7795;47.986;11.868;2023-06-14T06:26:02;21.20;51.00
15394;DHT22;7795;47.986;11.868;2023-06-14T06:28:28;21.30;50.70
15394;DHT22;7795;47.986;11.868;2023-06-14T06:30:55;21.40;50.60
15394;DHT22;7795;47.986;11.868;2023-06-14T06:33:21;21.40;50.00
15394;DHT22;7795;47.986;11.868;2023-06-14T06:35:47;21.50;50.20
15394;DHT22;7795;47.986;11.868;2023-06-14T06:38:13;21.50;49.90
15394;DHT22;7795;47.986;11.868;2023-06-14T06:40:39;21.60;49.60
15394;DHT22;7795;47.986;11.868;2023-06-14T06:43:04;21.60;49.30
15394;DHT22;7795;47.986;11.868;2023-06-14T06:45:30;21.60;49.20
15394;DHT22;7795;47.986;11.868;2023-06-14T06:47:57;21.60;48.90
15394;DHT22;7795;47.986;11.868;2023-06-14T06:50:23;21.60;48.70
15394;DHT22;7795;47.986;11.868;2023-06-14T06:52:50;21.60;49.00
15394;DHT22;7795;47.986;11.868;2023-06-14T06:55:16;21.70;48.90
15394;DHT22;7795;47.986;11.868;2023-06-14T06:57:43;21.70;48.80
15394;DHT22;7795;47.986;11.868;2023-06-14T07:00:10;21.70;48.70
15394;DHT22;7795;47.986;11.868;2023-06-14T07:02:36;21.70;48.80
15394;DHT22;7795;47.986;11.868;2023-06-14T07:05:04;21.70;48.50
15394;DHT22;7795;47.986;11.868;2023-06-14T07:07:30;21.70;48.30
15394;DHT22;7795;47.986;11.868;2023-06-14T07:09:55;21.70;48.50
15394;DHT22;7795;47.986;11.868;2023-06-14T07:12:23;21.70;48.30
15394;DHT22;7795;47.986;11.868;2023-06-14T07:14:48;21.70;48.10
15394;DHT22;7795;47.986;11.868;2023-06-14T07:17:14;21.70;48.20
15394;DHT22;7795;47.986;11.868;2023-06-14T07:19:40;21.70;48.00
15394;DHT22;7795;47.986;11.868;2023-06-14T07:22:07;21.70;48.00
15394;DHT22;7795;47.986;11.868;2023-06-14T07:24:33;21.60;48.00
15394;DHT22;7795;47.986;11.868;2023-06-14T07:27:00;21.60;48.00
15394;DHT22;7795;47.986;11.868;2023-06-14T07:29:27;21.60;47.90
15394;DHT22;7795;47.986;11.868;2023-06-14T07:31:52;21.60;47.70
15394;DHT22;7795;47.986;11.868;2023-06-14T07:34:18;21.50;47.70
15394;DHT22;7795;47.986;11.868;2023-06-14T07:36:44;21.50;47.70
15394;DHT22;7795;47.986;11.868;2023-06-14T07:39:11;21.50;47.80
15394;DHT22;7795;47.986;11.868;2023-06-14T07:41:37;21.40;47.90
15394;DHT22;7795;47.986;11.868;2023-06-14T07:44:03;21.40;47.90
15394;DHT22;7795;47.986;11.868;2023-06-14T07:46:29;21.40;47.90
15394;DHT22;7795;47.986;11.868;2023-06-14T07:48:55;21.40;47.80
15394;DHT22;7795;47.986;11.868;2023-06-14T07:51:21;21.40;47.90
15394;DHT22;7795;47.986;11.868;2023-06-14T07:53:48;21.30;47.80
15394;DHT22;7795;47.986;11.868;2023-06-14T07:56:15;21.30;47.80
15394;DHT22;7795;47.986;11.868;2023-06-14T07:58:41;21.30;47.90
15394;DHT22;7795;47.986;11.868;2023-06-14T08:01:06;21.30;47.90
15394;DHT22;7795;47.986;11.868;2023-06-14T08:03:33;21.30;48.00
15394;DHT22;7795;47.986;11.868;2023-06-14T08:06:00;21.30;48.10
15394;DHT22;7795;47.986;11.868;2023-06-14T08:08:26;21.40;48.30
15394;DHT22;7795;47.986;11.868;2023-06-14T08:10:52;21.30;48.40
15394;DHT22;7795;47.986;11.868;2023-06-14T08:13:19;21.40;48.40
15394;DHT22;7795;47.986;11.868;2023-06-14T08:15:45;21.40;48.30
15394;DHT22;7795;47.986;11.868;2023-06-14T08:18:11;21.50;48.00
15394;DHT22;7795;47.986;11.868;2023-06-14T08:20:36;21.50;47.90
15394;DHT22;7795;47.986;11.868;2023-06-14T08:23:03;21.50;47.90
15394;DHT22;7795;47.986;11.868;2023-06-14T08:25:29;21.60;47.90
15394;DHT22;7795;47.986;11.868;2023-06-14T08:27:55;21.60;47.70
15394;DHT22;7795;47.986;11.868;2023-06-14T08:30:23;21.60;47.70
15394;DHT22;7795;47.986;11.868;2023-06-14T08:32:48;21.70;48.00
15394;DHT22;7795;47.986;11.868;2023-06-14T08:35:14;21.70;47.90
15394;DHT22;7795;47.986;11.868;2023-06-14T08:37:41;21.80;47.60
15394;DHT22;7795;47.986;11.868;2023-06-14T08:40:17;21.80;47.70
15394;DHT22;7795;47.986;11.868;2023-06-14T08:42:45;21.90;47.40
15394;DHT22;7795;47.986;11.868;2023-06-14T08:45:11;22.00;47.30
15394;DHT22;7795;47.986;11.868;2023-06-14T08:47:38;22.00;46.90
15394;DHT22;7795;47.986;11.868;2023-06-14T08:50:06;22.10;46.40
15394;DHT22;7795;47.986;11.868;2023-06-14T08:52:37;22.20;46.40
15394;DHT22;7795;47.986;11.868;2023-06-14T08:55:06;22.20;46.20
15394;DHT22;7795;47.986;11.868;2023-06-14T08:57:36;22.20;46.00
15394;DHT22;7795;47.986;11.868;2023-06-14T09:00:03;22.30;45.90
15394;DHT22;7795;47.986;11.868;2023-06-14T09:02:40;22.30;46.10
15394;DHT22;7795;47.986;11.868;2023-06-14T09:05:09;22.40;46.10
15394;DHT22;7795;47.986;11.868;2023-06-14T09:07:36;22.50;46.10
15394;DHT22;7795;47.986;11.868;2023-06-14T09:10:08;22.50;46.10
15394;DHT22;7795;47.986;11.868;2023-06-14T09:12:34;22.60;46.00
15394;DHT22;7795;47.986;11.868;2023-06-14T09:15:00;22.70;46.10
15394;DHT22;7795;47.986;11.868;2023-06-14T09:17:25;22.80;46.20
15394;DHT22;7795;47.986;11.868;2023-06-14T09:19:55;22.90;45.90
15394;DHT22;7795;47.986;11.868;2023-06-14T09:22:21;23.00;45.60
15394;DHT22;7795;47.986;11.868;2023-06-14T09:24:47;23.00;45.50
15394;DHT22;7795;47.986;11.868;2023-06-14T09:27:15;23.10;45.20
15394;DHT22;7795;47.986;11.868;2023-06-14T09:29:41;23.20;45.30
15394;DHT22;7795;47.986;11.868;2023-06-14T09:32:07;23.30;45.40
15394;DHT22;7795;47.986;11.868;2023-06-14T09:34:34;23.40;45.30
15394;DHT22;7795;47.986;11.868;2023-06-14T09:37:02;23.50;44.90
15394;DHT22;7795;47.986;11.868;2023-06-14T09:39:27;23.50;44.70
15394;DHT22;7795;47.986;11.868;2023-06-14T09:41:53;23.60;44.70
15394;DHT22;7795;47.986;11.868;2023-06-14T09:44:19;23.60;44.80
15394;DHT22;7795;47.986;11.868;2023-06-14T09:46:46;23.70;43.80
15394;DHT22;7795;47.986;11.868;2023-06-14T09:49:12;23.80;43.10
15394;DHT22;7795;47.986;11.868;2023-06-14T09:51:43;23.80;43.10
15394;DHT22;7795;47.986;11.868;2023-06-14T09:54:16;23.80;43.60
15394;DHT22;7795;47.986;11.868;2023-06-14T09:56:44;23.80;42.90
15394;DHT22;7795;47.986;11.868;2023-06-14T09:59:12;23.90;43.10
15394;DHT22;7795;47.986;11.868;2023-06-14T10:01:41;23.90;43.20
15394;DHT22;7795;47.986;11.868;2023-06-14T10:04:09;23.90;42.60
15394;DHT22;7795;47.986;11.868;2023-06-14T10:06:37;24.00;42.70
15394;DHT22;7795;47.986;11.868;2023-06-14T10:09:08;24.10;42.50
15394;DHT22;7795;47.986;11.868;2023-06-14T10:11:36;24.10;41.80
15394;DHT22;7795;47.986;11.868;2023-06-14T10:14:05;24.10;42.00
15394;DHT22;7795;47.986;11.868;2023-06-14T10:16:32;24.20;42.10
15394;DHT22;7795;47.986;11.868;2023-06-14T10:19:03;24.20;42.00
15394;DHT22;7795;47.986;11.868;2023-06-14T10:24:17;24.30;41.90
15394;DHT22;7795;47.986;11.868;2023-06-14T10:26:56;24.40;41.60
15394;DHT22;7795;47.986;11.868;2023-06-14T10:29:23;24.40;41.70
15394;DHT22;7795;47.986;11.868;2023-06-14T10:31:50;24.50;41.70
15394;DHT22;7795;47.986;11.868;2023-06-14T10:34:23;24.60;41.30
15394;DHT22;7795;47.986;11.868;2023-06-14T10:37:03;24.60;40.60
15394;DHT22;7795;47.986;11.868;2023-06-14T10:39:30;24.70;40.80
15394;DHT22;7795;47.986;11.868;2023-06-14T10:41:57;24.80;41.10
15394;DHT22;7795;47.986;11.868;2023-06-14T10:44:54;24.90;41.10
15394;DHT22;7795;47.986;11.868;2023-06-14T10:47:28;24.90;39.60
15394;DHT22;7795;47.986;11.868;2023-06-14T10:49:55;25.00;39.70
15394;DHT22;7795;47.986;11.868;2023-06-14T10:52:24;25.00;40.00
15394;DHT22;7795;47.986;11.868;2023-06-14T10:55:04;25.10;39.60
15394;DHT22;7795;47.986;11.868;2023-06-14T10:57:31;25.20;38.90
15394;DHT22;7795;47.986;11.868;2023-06-14T10:59:57;25.20;39.10
15394;DHT22;7795;47.986;11.868;2023-06-14T11:02:49;25.30;39.40
15394;DHT22;7795;47.986;11.868;2023-06-14T11:05:23;25.30;39.20
15394;DHT22;7795;47.986;11.868;2023-06-14T11:07:58;25.40;39.30
15394;DHT22;7795;47.986;11.868;2023-06-14T11:10:36;25.40;39.00
15394;DHT22;7795;47.986;11.868;2023-06-14T11:13:04;25.50;39.10
15394;DHT22;7795;47.986;11.868;2023-06-14T11:15:34;25.50;38.40
15394;DHT22;7795;47.986;11.868;2023-06-14T11:18:01;25.60;38.90
15394;DHT22;7795;47.986;11.868;2023-06-14T11:20:31;25.60;38.80
15394;DHT22;7795;47.986;11.868;2023-06-14T11:22:57;25.60;38.70
15394;DHT22;7795;47.986;11.868;2023-06-14T11:25:23;25.60;38.60
15394;DHT22;7795;47.986;11.868;2023-06-14T11:27:49;25.70;38.60
15394;DHT22;7795;47.986;11.868;2023-06-14T11:30:17;25.70;38.30
15394;DHT22;7795;47.986;11.868;2023-06-14T11:32:46;25.80;38.60
15394;DHT22;7795;47.986;11.868;2023-06-14T11:35:12;25.80;38.20
15394;DHT22;7795;47.986;11.868;2023-06-14T11:37:38;25.80;37.70
15394;DHT22;7795;47.986;11.868;2023-06-14T11:40:07;25.90;37.20
15394;DHT22;7795;47.986;11.868;2023-06-14T11:42:34;25.90;37.00
15394;DHT22;7795;47.986;11.868;2023-06-14T11:45:00;25.90;37.10
15394;DHT22;7795;47.986;11.868;2023-06-14T11:47:32;25.80;36.90
15394;DHT22;7795;47.986;11.868;2023-06-14T11:49:59;25.80;36.40
15394;DHT22;7795;47.986;11.868;2023-06-14T11:52:25;25.70;36.80
15394;DHT22;7795;47.986;11.868;2023-06-14T11:54:51;25.70;36.80
15394;DHT22;7795;47.986;11.868;2023-06-14T11:57:18;25.60;36.80
15394;DHT22;7795;47.986;11.868;2023-06-14T11:59:44;25.60;37.10
15394;DHT22;7795;47.986;11.868;2023-06-14T12:02:14;25.60;38.10
15394;DHT22;7795;47.986;11.868;2023-06-14T12:04:42;25.60;37.30
15394;DHT22;7795;47.986;11.868;2023-06-14T12:07:12;25.60;37.00
15394;DHT22;7795;47.986;11.868;2023-06-14T12:09:40;25.60;36.70
15394;DHT22;7795;47.986;11.868;2023-06-14T12:12:09;25.60;36.80
15394;DHT22;7795;47.986;11.868;2023-06-14T12:14:36;25.70;37.00
15394;DHT22;7795;47.986;11.868;2023-06-14T12:17:04;25.70;36.90
15394;DHT22;7795;47.986;11.868;2023-06-14T12:19:31;25.70;37.40
15394;DHT22;7795;47.986;11.868;2023-06-14T12:22:00;25.80;37.20
15394;DHT22;7795;47.986;11.868;2023-06-14T12:24:28;25.80;36.50
15394;DHT22;7795;47.986;11.868;2023-06-14T12:26:54;25.80;36.40
15394;DHT22;7795;47.986;11.868;2023-06-14T12:29:22;25.90;36.60
15394;DHT22;7795;47.986;11.868;2023-06-14T12:31:49;25.90;36.40
15394;DHT22;7795;47.986;11.868;2023-06-14T12:34:15;25.90;36.10
15394;DHT22;7795;47.986;11.868;2023-06-14T12:36:41;25.90;36.10
15394;DHT22;7795;47.986;11.868;2023-06-14T12:39:11;26.00;36.10
15394;DHT22;7795;47.986;11.868;2023-06-14T12:41:37;26.00;36.00
15394;DHT22;7795;47.986;11.868;2023-06-14T12:44:03;26.00;36.10
15394;DHT22;7795;47.986;11.868;2023-06-14T12:46:31;26.10;36.10
15394;DHT22;7795;47.986;11.868;2023-06-14T12:48:57;26.10;36.10
15394;DHT22;7795;47.986;11.868;2023-06-14T12:51:23;26.10;35.90
15394;DHT22;7795;47.986;11.868;2023-06-14T12:53:50;26.10;35.60
15394;DHT22;7795;47.986;11.868;2023-06-14T12:56:18;26.10;35.60
15394;DHT22;7795;47.986;11.868;2023-06-14T12:58:43;26.10;35.30
15394;DHT22;7795;47.986;11.868;2023-06-14T13:01:09;26.20;35.30
15394;DHT22;7795;47.986;11.868;2023-06-14T13:03:35;26.20;35.40
15394;DHT22;7795;47.986;11.868;2023-06-14T13:06:01;26.20;35.50
15394;DHT22;7795;47.986;11.868;2023-06-14T13:08:27;26.20;36.30
15394;DHT22;7795;47.986;11.868;2023-06-14T13:10:53;26.20;35.40
15394;DHT22;7795;47.986;11.868;2023-06-14T13:13:21;26.20;35.30
15394;DHT22;7795;47.986;11.868;2023-06-14T13:15:46;26.30;34.90
15394;DHT22;7795;47.986;11.868;2023-06-14T13:18:13;26.30;35.30
15394;DHT22;7795;47.986;11.868;2023-06-14T13:20:39;26.20;35.20
15394;DHT22;7795;47.986;11.868;2023-06-14T13:23:05;26.20;35.20
15394;DHT22;7795;47.986;11.868;2023-06-14T13:25:32;26.30;35.10
15394;DHT22;7795;47.986;11.868;2023-06-14T13:27:58;26.20;34.50
15394;DHT22;7795;47.986;11.868;2023-06-14T13:30:25;26.20;34.40
15394;DHT22;7795;47.986;11.868;2023-06-14T13:32:51;26.30;34.60
15394;DHT22;7795;47.986;11.868;2023-06-14T13:35:17;26.20;35.30
15394;DHT22;7795;47.986;11.868;2023-06-14T13:37:43;26.20;34.70
15394;DHT22;7795;47.986;11.868;2023-06-14T13:40:10;26.30;34.60
15394;DHT22;7795;47.986;11.868;2023-06-14T13:42:36;26.30;34.80
15394;DHT22;7795;47.986;11.868;2023-06-14T13:45:02;26.30;34.50
15394;DHT22;7795;47.986;11.868;2023-06-14T13:47:31;26.40;34.20
15394;DHT22;7795;47.986;11.868;2023-06-14T13:49:57;26.40;34.10
15394;DHT22;7795;47.986;11.868;2023-06-14T13:52:23;26.40;35.00
15394;DHT22;7795;47.986;11.868;2023-06-14T13:54:49;26.50;34.40
15394;DHT22;7795;47.986;11.868;2023-06-14T13:57:15;26.50;34.00
15394;DHT22;7795;47.986;11.868;2023-06-14T13:59:41;26.50;34.30
15394;DHT22;7795;47.986;11.868;2023-06-14T14:02:07;26.50;33.80
15394;DHT22;7795;47.986;11.868;2023-06-14T14:04:34;26.60;33.70
15394;DHT22;7795;47.986;11.868;2023-06-14T14:07:01;26.60;33.50
15394;DHT22;7795;47.986;11.868;2023-06-14T14:09:27;26.60;33.60
15394;DHT22;7795;47.986;11.868;2023-06-14T14:11:53;26.70;33.60
15394;DHT22;7795;47.986;11.868;2023-06-14T14:14:18;26.70;33.50
15394;DHT22;7795;47.986;11.868;2023-06-14T14:16:44;26.80;33.40
15394;DHT22;7795;47.986;11.868;2023-06-14T14:19:10;26.80;33.50
15394;DHT22;7795;47.986;11.868;2023-06-14T14:21:37;26.80;33.10
15394;DHT22;7795;47.986;11.868;2023-06-14T14:24:03;26.80;33.00
15394;DHT22;7795;47.986;11.868;2023-06-14T14:26:29;26.80;32.80
15394;DHT22;7795;47.986;11.868;2023-06-14T14:28:55;26.80;32.80
15394;DHT22;7795;47.986;11.868;2023-06-14T14:31:21;26.80;32.70
15394;DHT22;7795;47.986;11.868;2023-06-14T14:33:47;26.80;32.60
15394;DHT22;7795;47.986;11.868;2023-06-14T14:36:13;26.80;32.60
15394;DHT22;7795;47.986;11.868;2023-06-14T14:38:40;26.80;32.60
15394;DHT22;7795;47.986;11.868;2023-06-14T14:41:06;26.80;32.60
15394;DHT22;7795;47.986;11.868;2023-06-14T14:43:32;26.80;32.60
15394;DHT22;7795;47.986;11.868;2023-06-14T14:45:58;26.80;32.60
15394;DHT22;7795;47.986;11.868;2023-06-14T14:48:23;26.80;32.70
15394;DHT22;7795;47.986;11.868;2023-06-14T14:50:49;26.90;32.70
15394;DHT22;7795;47.986;11.868;2023-06-14T14:53:15;26.90;32.60
15394;DHT22;7795;47.986;11.868;2023-06-14T14:55:43;26.90;32.50
15394;DHT22;7795;47.986;11.868;2023-06-14T14:58:09;26.90;32.80
15394;DHT22;7795;47.986;11.868;2023-06-14T15:00:35;26.90;32.30
15394;DHT22;7795;47.986;11.868;2023-06-14T15:03:00;26.90;32.10
15394;DHT22;7795;47.986;11.868;2023-06-14T15:05:26;26.90;32.00
15394;DHT22;7795;47.986;11.868;2023-06-14T15:07:53;26.90;31.90
15394;DHT22;7795;47.986;11.868;2023-06-14T15:10:18;26.90;32.10
15394;DHT22;7795;47.986;11.868;2023-06-14T15:12:45;26.90;32.90
15394;DHT22;7795;47.986;11.868;2023-06-14T15:15:11;26.90;32.30
15394;DHT22;7795;47.986;11.868;2023-06-14T15:17:37;27.00;32.70
15394;DHT22;7795;47.986;11.868;2023-06-14T15:20:03;27.00;32.50
15394;DHT22;7795;47.986;11.868;2023-06-14T15:22:31;27.00;32.40
15394;DHT22;7795;47.986;11.868;2023-06-14T15:24:57;27.00;32.30
15394;DHT22;7795;47.986;11.868;2023-06-14T15:27:22;27.00;32.70
15394;DHT22;7795;47.986;11.868;2023-06-14T15:29:50;27.00;32.30
15394;DHT22;7795;47.986;11.868;2023-06-14T15:32:15;27.00;32.10
15394;DHT22;7795;47.986;11.868;2023-06-14T15:34:41;27.00;32.60